Share

Plevna, MO

La Plata (KMOLAPLA2) Elev 928 ft | 40.03 °N, 92.48 °W | Change Station

Current weather conditions updated 5 seconds ago

Partly Cloudy
Partly Cloudy
51.3 °F
Feels Like 51.3 °F
N
2.2
Wind Variable Wind from NW
Gusts 7.6 mph
Sunrise 6:27 AM
Sunset 7:49 PM
Moon Waning Gibbous

Today is forecast to be Much Cooler than yesterday.

Pressure 30.29 in
Visibility 10.0 miles
Clouds Few 12000 ft
Dew Point 36 °F
Humidity 56%
Rainfall 0.00 in
Snow Depth Not available.
UV 9 out of 16
Pollen 10.00 out of 12
Air Quality Not available.
Flu Activity Sporadic
METAR KIRK 171855Z AUTO 03008KT 10SM FEW120 09/01 A3027 RMK AO2 SLP257 T00940006

More Conditions Fewer Conditions

Pressure 30.29 in
Visibility 10.0 miles
Clouds Few 12000 ft
Dew Point 36 °F
Humidity 56%
Rainfall 0.00 in
Snow Depth Not available.
UV 9 out of 16
Pollen 10.00 out of 12
Air Quality Not available.
Flu Activity Sporadic
METAR KIRK 171855Z AUTO 03008KT 10SM FEW120 09/01 A3027 RMK AO2 SLP257 T00940006

More Conditions Fewer Conditions

10-Day Forecast

Almanac

Astronomy

Apr. 17, 2014 Rise Set
Actual Time 6:27 AM CDT 7:49 PM CDT
Civil Twilight 5:59 AM CDT 8:17 PM CDT
Nautical Twilight 5:25 AM CDT 8:51 PM CDT
Astronomical Twilight 4:50 AM CDT 9:26 PM CDT
Moon 10:35 PM CDT 7:59 AM CDT
Length of Visible Light 14h 17m
Length of Day
13h 21m
Tomorrow will be 2m 28s longer.
Waning Gibbous, 93% of the Moon is Illuminated
Today
Waning Gibbous
Apr 22
Last Quarter
Apr 29
New
May 6
First Quarter
May 14
Full

Today's Extremes

State Highs State Lows

Community

  • New Day
    New Day
  • Lake Michigan Sunrise
    Lake Michigan Sunrise
  • sunset from izmir, narlıdere
    sunset from izmir, narlıdere
  • oregon cherry
    oregon cherry
  • Sunset over the Bay
    Sunset over the Bay

WunderPhotos

Upload Photos

1,702,101 photos uploaded!

Nearby

Snow Depth

Station Depth Elevation
No new snow has been reported.

Coastal Water Temperatures

Place Temperature
No Stations Reporting

Earthquake Activity

City Distance Mag. Time & Date
No recent earthquake activity has been reported nearby.
Minimum magnitude displayed is 2.5.

Nearby Weather Stations

Station Location Temp. Windchill Dew Point Humidity Wind Precip. Elev Updated Type
La Plata, La Plata, MO 51.3 °F - 36 °F 56% NW  at  2.2 mph 0.00 in / hr 928 ft 2:19 PM CDT Rapid Fire
RAWS ATLANTA MO MO, Atlanta, MO 48 °F 47 °F 34 °F 59% NNW  at  4 mph 0.00 in / hr 839 ft 1:13 PM CDT MADIS

Show More Stations Show Fewer Stations

What do you think?

We're not finished. Please let us know what you like, what you don't like, and what you are still missing.